createdAt,value
2023-03-24T00:01:11.976Z,2.38
2023-03-24T00:03:40.476Z,2.30
2023-03-24T00:06:09.409Z,2.20
2023-03-24T00:08:38.342Z,2.05
2023-03-24T00:11:09.094Z,2.30
2023-03-24T00:13:38.395Z,2.00
2023-03-24T00:16:08.172Z,2.20
2023-03-24T00:18:39.782Z,2.13
2023-03-24T00:21:10.809Z,2.17
2023-03-24T00:23:42.993Z,2.05
2023-03-24T00:26:15.452Z,2.25
2023-03-24T00:28:45.826Z,2.10
2023-03-24T00:31:15.756Z,2.20
2023-03-24T00:33:50.657Z,2.05
2023-03-24T00:36:20.609Z,2.10
2023-03-24T00:38:50.173Z,2.10
2023-03-24T00:43:49.482Z,1.95
2023-03-24T00:46:27.907Z,2.25
2023-03-24T00:49:02.087Z,2.38
2023-03-24T00:51:32.976Z,2.20
2023-03-24T00:54:01.997Z,2.10
2023-03-24T00:56:32.236Z,2.10
2023-03-24T00:59:02.535Z,2.08
2023-03-24T01:01:34.850Z,2.03
2023-03-24T01:04:06.381Z,2.03
2023-03-24T01:06:36.568Z,2.30
2023-03-24T01:09:06.183Z,2.08
2023-03-24T01:11:39.739Z,2.50
2023-03-24T01:14:08.109Z,2.15
2023-03-24T01:16:36.074Z,2.30
2023-03-24T01:19:06.722Z,2.33
2023-03-24T01:21:35.866Z,2.40
2023-03-24T01:24:05.026Z,2.55
2023-03-24T01:26:32.888Z,2.25
2023-03-24T01:29:01.141Z,2.25
2023-03-24T01:31:28.999Z,2.60
2023-03-24T01:33:56.868Z,2.13
2023-03-24T01:36:26.290Z,2.25
2023-03-24T01:38:54.183Z,2.03
2023-03-24T01:41:21.966Z,2.40
2023-03-24T01:43:50.284Z,2.58
2023-03-24T01:46:19.821Z,2.42
2023-03-24T01:51:24.170Z,2.45
2023-03-24T01:53:58.655Z,2.85
2023-03-24T01:56:28.476Z,2.10
2023-03-24T01:59:00.716Z,2.53
2023-03-24T02:01:30.674Z,2.55
2023-03-24T02:03:59.475Z,2.35
2023-03-24T02:06:28.893Z,2.57
2023-03-24T02:09:01.416Z,3.15
2023-03-24T02:11:32.377Z,2.90
2023-03-24T02:14:00.477Z,3.22
2023-03-24T02:16:48.516Z,2.60
2023-03-24T02:19:47.676Z,2.80
2023-03-24T02:22:48.171Z,2.38
2023-03-24T02:25:51.899Z,2.20
2023-03-24T02:28:32.217Z,1.83
2023-03-24T02:31:29.710Z,1.60
2023-03-24T02:34:41.419Z,1.27
2023-03-24T02:37:43.904Z,1.58
2023-03-24T02:40:51.138Z,1.02
2023-03-24T02:43:29.552Z,1.10
2023-03-24T02:46:13.974Z,1.20
2023-03-24T02:48:54.005Z,1.20
2023-03-24T02:54:01.832Z,0.90
2023-03-24T02:56:39.639Z,1.00
2023-03-24T02:59:12.006Z,1.05
2023-03-24T03:01:45.754Z,1.17
2023-03-24T03:04:19.033Z,1.08
2023-03-24T03:06:53.330Z,1.10
2023-03-24T03:09:23.580Z,1.13
2023-03-24T03:11:57.690Z,1.08
2023-03-24T03:14:29.980Z,1.30
2023-03-24T03:17:02.759Z,1.20
2023-03-24T03:19:34.638Z,1.13
2023-03-24T03:22:06.069Z,1.27
2023-03-24T03:24:39.187Z,1.20
2023-03-24T03:27:15.266Z,1.33
2023-03-24T03:29:48.594Z,1.73
2023-03-24T03:32:25.395Z,1.25
2023-03-24T03:34:58.991Z,1.23
2023-03-24T03:37:34.373Z,1.63
2023-03-24T03:40:08.756Z,1.38
2023-03-24T03:42:38.700Z,1.35
2023-03-24T03:45:09.329Z,1.58
2023-03-24T03:47:37.690Z,1.50
2023-03-24T03:50:09.362Z,1.73
2023-03-24T03:52:38.602Z,1.80
2023-03-24T03:55:07.911Z,1.50
2023-03-24T03:57:38.382Z,1.80
2023-03-24T04:00:10.029Z,1.92
2023-03-24T04:02:51.442Z,1.85
2023-03-24T04:05:29.199Z,2.03
2023-03-24T04:08:10.153Z,2.70
2023-03-24T04:10:53.555Z,2.70
2023-03-24T04:13:30.489Z,2.53
2023-03-24T04:16:05.157Z,2.80
2023-03-24T04:18:46.977Z,3.00
2023-03-24T04:21:33.311Z,3.05
2023-03-24T04:24:14.051Z,3.50
2023-03-24T04:26:48.539Z,3.35
2023-03-24T04:29:27.570Z,3.67
2023-03-24T04:32:02.313Z,2.70
2023-03-24T04:34:35.722Z,3.00
2023-03-24T04:37:09.157Z,2.85
2023-03-24T04:39:40.380Z,3.63
2023-03-24T04:42:13.714Z,3.47
2023-03-24T04:44:43.910Z,3.60
2023-03-24T04:47:13.439Z,3.88
2023-03-24T04:49:41.236Z,3.60
2023-03-24T04:52:09.599Z,3.88
2023-03-24T04:54:37.312Z,4.45
2023-03-24T04:57:05.909Z,3.63
2023-03-24T04:59:34.755Z,4.33
2023-03-24T05:02:04.331Z,3.30
2023-03-24T05:04:32.006Z,3.17
2023-03-24T05:07:00.265Z,2.83
2023-03-24T05:09:27.956Z,2.92
2023-03-24T05:11:55.698Z,3.10
2023-03-24T05:14:24.059Z,3.38
2023-03-24T05:16:51.791Z,3.03
2023-03-24T05:19:20.954Z,2.88
2023-03-24T05:21:49.419Z,2.72
2023-03-24T05:24:17.095Z,2.70
2023-03-24T05:26:44.771Z,2.15
2023-03-24T05:29:12.957Z,2.83
2023-03-24T05:31:40.685Z,2.45
2023-03-24T05:34:08.378Z,2.35
2023-03-24T05:36:38.930Z,2.78
2023-03-24T05:39:06.616Z,2.55
2023-03-24T05:41:34.318Z,2.45
2023-03-24T05:44:02.393Z,2.60
2023-03-24T05:46:30.148Z,2.67
2023-03-24T05:48:59.871Z,2.50
2023-03-24T05:51:28.102Z,2.05
2023-03-24T05:53:57.143Z,2.75
2023-03-24T05:56:25.033Z,2.10
2023-03-24T05:58:53.460Z,2.50
2023-03-24T06:01:21.119Z,2.22
2023-03-24T06:03:49.168Z,3.40
2023-03-24T06:06:18.729Z,2.55
2023-03-24T06:08:46.467Z,2.78
2023-03-24T06:11:16.275Z,2.40
2023-03-24T06:13:44.531Z,2.80
2023-03-24T06:16:12.603Z,2.17
2023-03-24T06:18:42.665Z,2.40
2023-03-24T06:21:11.399Z,2.58
2023-03-24T06:23:39.304Z,2.30
2023-03-24T06:26:12.177Z,2.72
2023-03-24T06:28:42.106Z,2.22
2023-03-24T06:31:15.375Z,2.38
2023-03-24T06:33:43.505Z,3.35
2023-03-24T06:36:12.457Z,2.20
2023-03-24T06:38:40.967Z,2.88
2023-03-24T06:41:09.537Z,2.53
2023-03-24T06:43:37.255Z,2.05
2023-03-24T06:46:07.280Z,2.65
2023-03-24T06:48:34.960Z,2.67
2023-03-24T06:51:02.688Z,3.10
2023-03-24T06:53:31.012Z,2.13
2023-03-24T06:55:58.730Z,2.60
2023-03-24T06:58:26.494Z,2.72
2023-03-24T07:00:55.731Z,2.78
2023-03-24T07:03:25.217Z,2.53
2023-03-24T07:05:53.251Z,2.72
2023-03-24T07:10:52.175Z,2.55
2023-03-24T07:13:20.007Z,3.03
2023-03-24T07:15:48.242Z,2.72
2023-03-24T07:18:16.054Z,2.47
2023-03-24T07:20:45.368Z,2.33
2023-03-24T07:23:13.286Z,2.92
2023-03-24T07:25:41.398Z,2.25
2023-03-24T07:28:09.159Z,2.60
2023-03-24T07:33:27.261Z,2.42
2023-03-24T07:35:57.536Z,2.60
2023-03-24T07:38:25.625Z,2.85
2023-03-24T07:40:53.439Z,2.30
2023-03-24T07:43:22.067Z,2.67
2023-03-24T07:45:50.131Z,2.50
2023-03-24T07:48:17.987Z,2.50
2023-03-24T07:50:46.308Z,2.20
2023-03-24T07:53:19.949Z,3.47
2023-03-24T07:55:48.380Z,2.67
2023-03-24T07:58:16.484Z,2.03
2023-03-24T08:00:44.670Z,2.63
2023-03-24T08:03:15.563Z,2.17
2023-03-24T08:05:44.386Z,2.70
2023-03-24T08:08:12.094Z,2.42
2023-03-24T08:10:41.335Z,2.63
2023-03-24T08:13:08.991Z,2.38
2023-03-24T08:15:37.973Z,2.20
2023-03-24T08:18:06.523Z,2.72
2023-03-24T08:20:34.294Z,2.38
2023-03-24T08:23:04.516Z,2.83
2023-03-24T08:25:32.385Z,2.30
2023-03-24T08:28:01.461Z,2.78
2023-03-24T08:30:29.258Z,2.35
2023-03-24T08:33:00.969Z,2.30
2023-03-24T08:35:31.416Z,2.20
2023-03-24T08:37:59.504Z,2.80
2023-03-24T08:40:30.130Z,2.63
2023-03-24T08:42:59.802Z,2.83
2023-03-24T08:48:00.925Z,2.75
2023-03-24T08:50:31.580Z,2.78
2023-03-24T08:52:59.862Z,2.55
2023-03-24T08:55:27.724Z,2.22
2023-03-24T08:57:56.246Z,2.30
2023-03-24T09:00:24.738Z,2.80
2023-03-24T09:02:56.247Z,2.60
2023-03-24T09:05:40.963Z,2.50
2023-03-24T09:08:15.469Z,2.63
2023-03-24T09:10:47.110Z,3.15
2023-03-24T09:13:16.013Z,2.20
2023-03-24T09:15:47.771Z,2.42
2023-03-24T09:18:17.690Z,2.67
2023-03-24T09:23:14.334Z,2.63
2023-03-24T09:25:42.712Z,2.47
2023-03-24T09:28:10.938Z,2.40
2023-03-24T09:30:39.133Z,2.63
2023-03-24T09:33:07.457Z,2.47
2023-03-24T09:35:37.142Z,2.25
2023-03-24T09:38:05.356Z,2.63
2023-03-24T09:40:37.687Z,2.33
2023-03-24T09:43:08.077Z,2.25
2023-03-24T09:45:43.817Z,2.10
2023-03-24T09:48:19.217Z,2.53
2023-03-24T09:50:54.174Z,1.90
2023-03-24T09:53:32.004Z,2.72
2023-03-24T09:56:06.850Z,2.60
2023-03-24T09:58:35.716Z,2.42
2023-03-24T10:01:03.733Z,2.08
2023-03-24T10:03:32.527Z,2.45
2023-03-24T10:06:09.089Z,2.55
2023-03-24T10:08:38.463Z,2.30
2023-03-24T10:11:15.708Z,2.25
2023-03-24T10:13:53.998Z,2.67
2023-03-24T10:16:28.288Z,2.63
2023-03-24T10:19:05.144Z,2.35
2023-03-24T10:21:39.998Z,2.30
2023-03-24T10:24:17.794Z,2.40
2023-03-24T10:26:53.051Z,2.40
2023-03-24T10:29:26.339Z,2.55
2023-03-24T10:31:58.799Z,3.20
2023-03-24T10:34:31.171Z,2.35
2023-03-24T10:37:03.148Z,2.75
2023-03-24T10:39:44.082Z,2.55
2023-03-24T10:42:18.425Z,2.58
2023-03-24T10:44:48.299Z,2.35
2023-03-24T10:47:20.960Z,2.30
2023-03-24T10:49:58.629Z,2.53
2023-03-24T10:52:28.567Z,2.25
2023-03-24T10:54:58.928Z,2.47
2023-03-24T10:57:28.719Z,2.40
2023-03-24T11:00:01.007Z,2.20
2023-03-24T11:02:32.193Z,2.42
2023-03-24T11:05:04.268Z,2.33
2023-03-24T11:07:38.929Z,2.20
2023-03-24T11:10:16.241Z,2.00
2023-03-24T11:13:00.044Z,2.10
2023-03-24T11:15:31.062Z,2.60
2023-03-24T11:18:01.836Z,2.13
2023-03-24T11:20:34.384Z,1.92
2023-03-24T11:23:07.703Z,2.28
2023-03-24T11:25:38.908Z,2.35
2023-03-24T11:28:10.643Z,2.28
2023-03-24T11:30:47.932Z,2.38
2023-03-24T11:33:34.933Z,2.33
2023-03-24T11:36:11.070Z,1.93
2023-03-24T11:38:41.236Z,3.13
2023-03-24T11:41:23.064Z,1.90
2023-03-24T11:43:51.151Z,2.45
2023-03-24T11:46:24.023Z,2.15
2023-03-24T11:48:57.125Z,2.15
2023-03-24T11:51:29.911Z,2.15
2023-03-24T11:54:01.153Z,2.80
2023-03-24T11:56:39.466Z,2.28
2023-03-24T11:59:32.086Z,1.90
2023-03-24T12:02:12.445Z,2.60
2023-03-24T12:04:57.872Z,2.00
2023-03-24T12:08:01.502Z,2.70
2023-03-24T12:10:42.291Z,2.53
2023-03-24T12:13:29.560Z,2.33
2023-03-24T12:16:09.328Z,2.30
2023-03-24T12:18:50.614Z,1.88
2023-03-24T12:21:30.450Z,2.05
2023-03-24T12:24:02.302Z,1.88
2023-03-24T12:26:32.808Z,2.42
2023-03-24T12:29:19.029Z,2.08
2023-03-24T12:32:02.281Z,2.17
2023-03-24T12:34:54.140Z,2.20
2023-03-24T12:37:32.734Z,1.90
2023-03-24T12:40:17.129Z,1.90
2023-03-24T12:42:47.865Z,1.70
2023-03-24T12:45:33.083Z,1.80
2023-03-24T12:48:19.502Z,1.65
2023-03-24T12:51:00.323Z,1.98
2023-03-24T12:53:53.715Z,1.80
2023-03-24T12:56:28.851Z,1.60
2023-03-24T12:59:02.828Z,1.60
2023-03-24T13:01:36.715Z,1.90
2023-03-24T13:04:11.540Z,2.58
2023-03-24T13:06:46.256Z,1.83
2023-03-24T13:09:31.598Z,2.45
2023-03-24T13:12:04.638Z,2.10
2023-03-24T13:14:47.762Z,2.35
2023-03-24T13:17:21.930Z,2.33
2023-03-24T13:19:53.087Z,2.08
2023-03-24T13:22:24.467Z,2.20
2023-03-24T13:24:55.777Z,1.67
2023-03-24T13:27:25.882Z,1.30
2023-03-24T13:30:14.595Z,1.33
2023-03-24T13:32:46.063Z,1.03
2023-03-24T13:35:21.402Z,1.20
2023-03-24T13:37:54.079Z,1.30
2023-03-24T13:40:25.047Z,1.63
2023-03-24T13:42:56.673Z,1.73
2023-03-24T13:45:34.530Z,1.30
2023-03-24T13:48:17.761Z,1.98
2023-03-24T13:50:55.980Z,1.40
2023-03-24T13:53:34.060Z,1.83
2023-03-24T13:56:04.934Z,1.92
2023-03-24T13:59:08.302Z,1.90
2023-03-24T14:01:40.051Z,2.17
2023-03-24T14:04:45.246Z,1.70
2023-03-24T14:07:31.913Z,2.78
2023-03-24T14:10:02.233Z,1.77
2023-03-24T14:12:34.435Z,1.70
2023-03-24T14:15:21.856Z,1.88
2023-03-24T14:17:56.626Z,2.13
2023-03-24T14:20:36.655Z,1.80
2023-03-24T14:23:05.352Z,1.70
2023-03-24T14:25:37.349Z,2.53
2023-03-24T14:28:21.512Z,2.17
2023-03-24T14:31:13.618Z,1.88
2023-03-24T14:34:02.388Z,1.75
2023-03-24T14:36:32.922Z,2.00
2023-03-24T14:39:12.582Z,2.00
2023-03-24T14:44:10.268Z,1.42
2023-03-24T14:46:41.307Z,2.00
2023-03-24T14:49:29.750Z,1.63
2023-03-24T14:52:03.564Z,1.35
2023-03-24T14:54:38.312Z,1.30
2023-03-24T14:57:08.195Z,1.20
2023-03-24T14:59:47.435Z,0.90
2023-03-24T15:02:28.434Z,0.95
2023-03-24T15:05:31.279Z,1.27
2023-03-24T15:08:13.401Z,1.38
2023-03-24T15:10:46.455Z,1.23
2023-03-24T15:13:35.544Z,1.20
2023-03-24T15:16:08.423Z,1.05
2023-03-24T15:18:38.828Z,1.25
2023-03-24T15:21:23.736Z,1.00
2023-03-24T15:23:52.047Z,1.05
2023-03-24T15:26:22.593Z,1.10
2023-03-24T15:29:01.419Z,1.13
2023-03-24T15:31:31.399Z,1.63
2023-03-24T15:34:08.440Z,1.10
2023-03-24T15:36:41.135Z,1.20
2023-03-24T15:39:21.305Z,1.13
2023-03-24T15:41:53.361Z,1.33
2023-03-24T15:44:23.596Z,1.30
2023-03-24T15:46:52.043Z,2.10
2023-03-24T15:49:26.265Z,1.45
2023-03-24T15:51:59.364Z,1.58
2023-03-24T15:54:31.552Z,1.35
2023-03-24T15:57:12.217Z,1.20
2023-03-24T15:59:47.189Z,1.30
2023-03-24T16:02:31.224Z,1.55
2023-03-24T16:05:11.046Z,1.60
2023-03-24T16:07:42.823Z,1.70
2023-03-24T16:10:33.452Z,1.70
2023-03-24T16:13:14.619Z,1.60
2023-03-24T16:15:45.312Z,1.58
2023-03-24T16:18:19.867Z,2.13
2023-03-24T16:20:48.630Z,1.90
2023-03-24T16:23:18.763Z,1.88
2023-03-24T16:25:46.784Z,1.98
2023-03-24T16:28:19.447Z,1.88
2023-03-24T16:30:51.326Z,2.20
2023-03-24T16:33:20.848Z,2.25
2023-03-24T16:35:51.273Z,2.00
2023-03-24T16:38:22.088Z,2.17
2023-03-24T16:40:51.851Z,2.80
2023-03-24T16:43:20.944Z,2.50
2023-03-24T16:45:50.161Z,2.45
2023-03-24T16:48:18.741Z,2.30
2023-03-24T16:50:50.608Z,2.20
2023-03-24T16:53:21.381Z,2.30
2023-03-24T16:55:50.006Z,1.90
2023-03-24T16:58:18.973Z,1.90
2023-03-24T17:00:49.242Z,2.30
2023-03-24T17:03:18.398Z,1.90
2023-03-24T17:05:48.861Z,1.60
2023-03-24T17:08:18.781Z,2.03
2023-03-24T17:10:50.478Z,2.10
2023-03-24T17:13:21.352Z,1.42
2023-03-24T17:15:49.725Z,1.83
2023-03-24T17:18:17.936Z,1.50
2023-03-24T17:20:46.481Z,1.10
2023-03-24T17:23:18.761Z,1.00
2023-03-24T17:25:50.162Z,0.65
2023-03-24T17:28:18.804Z,1.10
2023-03-24T17:30:47.175Z,1.10
2023-03-24T17:33:16.765Z,1.52
2023-03-24T17:35:47.022Z,1.08
2023-03-24T17:38:16.764Z,0.70
2023-03-24T17:40:46.758Z,0.70
2023-03-24T17:43:16.377Z,0.57
2023-03-24T17:45:44.958Z,0.50
2023-03-24T17:48:13.279Z,0.55
2023-03-24T17:50:41.717Z,0.50
2023-03-24T17:53:14.113Z,0.82
2023-03-24T17:55:42.224Z,0.80
2023-03-24T17:58:10.836Z,0.70
2023-03-24T18:00:42.000Z,1.30
2023-03-24T18:03:10.040Z,0.98
2023-03-24T18:05:38.241Z,1.10
2023-03-24T18:08:07.602Z,1.00
2023-03-24T18:10:36.332Z,1.13
2023-03-24T18:13:05.030Z,1.07
2023-03-24T18:15:34.308Z,1.60
2023-03-24T18:18:04.338Z,1.55
2023-03-24T18:20:32.967Z,1.40
2023-03-24T18:23:01.565Z,1.52
2023-03-24T18:25:30.013Z,1.83
2023-03-24T18:27:58.988Z,2.15
2023-03-24T18:30:27.690Z,1.88
2023-03-24T18:32:56.080Z,1.70
2023-03-24T18:35:25.787Z,2.00
2023-03-24T18:40:22.488Z,2.03
2023-03-24T18:42:51.014Z,1.90
2023-03-24T18:45:20.121Z,1.95
2023-03-24T18:47:48.747Z,2.50
2023-03-24T18:50:16.956Z,2.20
2023-03-24T18:52:47.004Z,2.45
2023-03-24T18:55:18.211Z,5.78
2023-03-24T18:57:46.405Z,7.53
2023-03-24T19:00:16.983Z,7.60
2023-03-24T19:02:45.506Z,5.93
2023-03-24T19:05:17.514Z,6.40
2023-03-24T19:07:48.658Z,5.10
2023-03-24T19:10:17.961Z,4.85
2023-03-24T19:12:46.577Z,7.50
2023-03-24T19:15:14.770Z,4.43
2023-03-24T19:17:43.581Z,5.32
2023-03-24T19:20:12.558Z,4.57
2023-03-24T19:22:41.676Z,4.00
2023-03-24T19:25:12.275Z,3.70
2023-03-24T19:27:40.391Z,3.60
2023-03-24T19:30:09.762Z,3.33
2023-03-24T19:32:38.436Z,3.10
2023-03-24T19:35:08.434Z,2.42
2023-03-24T19:37:37.769Z,2.40
2023-03-24T19:40:11.815Z,2.40
2023-03-24T19:42:42.695Z,3.20
2023-03-24T19:45:12.425Z,2.13
2023-03-24T19:50:10.432Z,2.70
2023-03-24T19:52:38.756Z,2.30
2023-03-24T19:55:07.987Z,2.00
2023-03-24T19:57:36.813Z,2.13
2023-03-24T20:00:10.264Z,2.38
2023-03-24T20:02:39.687Z,2.08
2023-03-24T20:05:08.691Z,1.88
2023-03-24T20:07:38.393Z,1.60
2023-03-24T20:12:35.725Z,2.47
2023-03-24T20:15:04.232Z,2.30
2023-03-24T20:17:37.788Z,2.63
2023-03-24T20:20:07.840Z,2.28
2023-03-24T20:22:36.673Z,2.80
2023-03-24T20:25:06.088Z,2.80
2023-03-24T20:27:34.306Z,2.70
2023-03-24T20:30:03.623Z,2.65
2023-03-24T20:32:33.869Z,2.83
2023-03-24T20:35:02.271Z,2.80
2023-03-24T20:37:32.396Z,3.50
2023-03-24T20:40:01.121Z,2.72
2023-03-24T20:42:29.350Z,2.90
2023-03-24T20:44:57.845Z,2.78
2023-03-24T20:47:26.557Z,2.40
2023-03-24T20:49:56.451Z,2.93
2023-03-24T20:52:24.772Z,2.60
2023-03-24T20:54:54.794Z,4.25
2023-03-24T20:57:25.974Z,7.70
2023-03-24T20:59:54.284Z,4.10
2023-03-24T21:02:22.850Z,3.00
2023-03-24T21:04:51.371Z,3.08
2023-03-24T21:07:22.231Z,2.90
2023-03-24T21:09:50.862Z,2.63
2023-03-24T21:12:19.325Z,2.33
2023-03-24T21:14:47.798Z,1.73
2023-03-24T21:17:19.344Z,2.20
2023-03-24T21:19:47.766Z,1.95
2023-03-24T21:22:16.281Z,1.67
2023-03-24T21:24:46.227Z,1.33
2023-03-24T21:27:14.259Z,1.55
2023-03-24T21:29:42.493Z,1.58
2023-03-24T21:32:11.482Z,1.58
2023-03-24T21:34:39.564Z,1.35
2023-03-24T21:37:10.012Z,1.52
2023-03-24T21:39:38.144Z,1.80
2023-03-24T21:42:07.716Z,1.60
2023-03-24T21:44:35.864Z,1.67
2023-03-24T21:47:04.560Z,1.30
2023-03-24T21:49:33.616Z,1.60
2023-03-24T21:52:04.538Z,2.10
2023-03-24T21:54:33.471Z,1.90
2023-03-24T21:57:01.855Z,1.67
2023-03-24T21:59:32.296Z,2.00
2023-03-24T22:02:00.440Z,1.80
2023-03-24T22:04:28.541Z,1.50
2023-03-24T22:06:56.831Z,1.80
2023-03-24T22:09:27.576Z,1.60
2023-03-24T22:11:57.480Z,1.98
2023-03-24T22:14:25.749Z,2.10
2023-03-24T22:16:55.172Z,1.95
2023-03-24T22:19:23.706Z,2.20
2023-03-24T22:21:57.221Z,1.80
2023-03-24T22:24:25.579Z,1.70
2023-03-24T22:26:53.846Z,2.28
2023-03-24T22:29:21.878Z,2.05
2023-03-24T22:31:50.370Z,1.77
2023-03-24T22:34:19.900Z,2.30
2023-03-24T22:36:48.021Z,1.90
2023-03-24T22:39:16.830Z,1.70
2023-03-24T22:41:45.467Z,1.67
2023-03-24T22:44:13.564Z,1.92
2023-03-24T22:46:41.713Z,2.17
2023-03-24T22:49:09.893Z,2.13
2023-03-24T22:51:39.270Z,1.52
2023-03-24T22:54:07.944Z,1.73
2023-03-24T22:56:36.154Z,2.13
2023-03-24T22:59:04.539Z,2.20
2023-03-24T23:01:33.397Z,1.90
2023-03-24T23:04:01.764Z,2.10
2023-03-24T23:06:30.204Z,2.10
2023-03-24T23:09:00.863Z,2.00
2023-03-24T23:11:29.037Z,1.85
2023-03-24T23:14:05.811Z,1.95
2023-03-24T23:16:37.721Z,1.80
2023-03-24T23:19:07.401Z,1.63
2023-03-24T23:21:36.269Z,1.50
2023-03-24T23:24:06.482Z,1.77
2023-03-24T23:26:35.361Z,1.40
2023-03-24T23:29:03.608Z,1.77
2023-03-24T23:31:31.809Z,1.50
2023-03-24T23:34:00.839Z,2.05
2023-03-24T23:36:29.073Z,1.58
2023-03-24T23:38:57.331Z,1.30
2023-03-24T23:41:27.538Z,1.50
2023-03-24T23:43:56.005Z,1.30
2023-03-24T23:46:25.080Z,1.55
2023-03-24T23:48:53.513Z,1.52
2023-03-24T23:51:22.208Z,1.58
2023-03-24T23:53:50.328Z,1.63
2023-03-24T23:56:22.067Z,1.52
2023-03-24T23:58:52.250Z,1.40
